sensor_id;sensor_type;location;lat;lon;timestamp;pressure;altitude;pressure_sealevel;temperature;humidity
73422;BME280;61637;47.760;-122.022;2023-03-03T00:00:01;101591.7;;;4.8;unknown
73422;BME280;61637;47.760;-122.022;2023-03-03T00:02:01;101591.7;;;4.8;unknown
73422;BME280;61637;47.760;-122.022;2023-03-03T00:04:01;101591.7;;;4.7;unknown
73422;BME280;61637;47.760;-122.022;2023-03-03T00:06:01;101591.7;;;4.6;unknown
73422;BME280;61637;47.760;-122.022;2023-03-03T00:08:01;101591.7;;;4.5;unknown
73422;BME280;61637;47.760;-122.022;2023-03-03T00:10:01;101591.7;;;4.4;unknown
73422;BME280;61637;47.760;-122.022;2023-03-03T00:12:01;101591.7;;;4.3;unknown
73422;BME280;61637;47.760;-122.022;2023-03-03T00:14:01;101591.7;;;4.2;unknown
73422;BME280;61637;47.760;-122.022;2023-03-03T00:16:09;101591.7;;;4.1;unknown
73422;BME280;61637;47.760;-122.022;2023-03-03T00:18:01;101591.7;;;3.9;unknown
73422;BME280;61637;47.760;-122.022;2023-03-03T00:20:01;101591.7;;;3.9;unknown
73422;BME280;61637;47.760;-122.022;2023-03-03T00:22:01;101591.7;;;3.8;unknown
73422;BME280;61637;47.760;-122.022;2023-03-03T00:26:01;101591.7;;;3.7;unknown
73422;BME280;61637;47.760;-122.022;2023-03-03T00:28:01;101591.7;;;3.6;unknown
73422;BME280;61637;47.760;-122.022;2023-03-03T00:30:01;101591.7;;;3.5;unknown
73422;BME280;61637;47.760;-122.022;2023-03-03T00:34:02;101591.7;;;3.3;unknown
73422;BME280;61637;47.760;-122.022;2023-03-03T00:38:01;101591.7;;;3.1;unknown
73422;BME280;61637;47.760;-122.022;2023-03-03T00:40:10;101591.7;;;2.9;unknown
73422;BME280;61637;47.760;-122.022;2023-03-03T00:42:01;101591.7;;;2.8;unknown
73422;BME280;61637;47.760;-122.022;2023-03-03T00:44:01;101591.7;;;2.7;unknown
73422;BME280;61637;47.760;-122.022;2023-03-03T00:46:01;101591.7;;;2.7;unknown
73422;BME280;61637;47.760;-122.022;2023-03-03T00:48:08;101591.7;;;2.6;unknown
73422;BME280;61637;47.760;-122.022;2023-03-03T00:52:01;101591.7;;;2.6;unknown
73422;BME280;61637;47.760;-122.022;2023-03-03T00:54:01;101591.7;;;2.6;unknown
73422;BME280;61637;47.760;-122.022;2023-03-03T00:56:01;101591.7;;;2.6;unknown
73422;BME280;61637;47.760;-122.022;2023-03-03T00:58:01;101591.7;;;2.6;unknown
73422;BME280;61637;47.760;-122.022;2023-03-03T01:00:01;101591.7;;;2.6;unknown
73422;BME280;61637;47.760;-122.022;2023-03-03T01:02:01;101591.7;;;2.6;unknown
73422;BME280;61637;47.760;-122.022;2023-03-03T01:04:01;101591.7;;;2.6;unknown
73422;BME280;61637;47.760;-122.022;2023-03-03T01:06:01;101591.7;;;2.6;unknown
73422;BME280;61637;47.760;-122.022;2023-03-03T01:08:01;101591.7;;;2.6;unknown
73422;BME280;61637;47.760;-122.022;2023-03-03T01:10:01;101591.7;;;2.4;unknown
73422;BME280;61637;47.760;-122.022;2023-03-03T01:12:01;101591.7;;;2.4;unknown
73422;BME280;61637;47.760;-122.022;2023-03-03T01:14:01;101591.7;;;2.4;unknown
73422;BME280;61637;47.760;-122.022;2023-03-03T01:16:01;101591.7;;;2.4;unknown
73422;BME280;61637;47.760;-122.022;2023-03-03T01:18:01;101591.7;;;2.4;unknown
73422;BME280;61637;47.760;-122.022;2023-03-03T01:20:01;101591.7;;;2.4;unknown
73422;BME280;61637;47.760;-122.022;2023-03-03T01:22:01;101591.7;;;2.4;unknown
73422;BME280;61637;47.760;-122.022;2023-03-03T01:24:01;101591.7;;;2.4;unknown
73422;BME280;61637;47.760;-122.022;2023-03-03T01:26:01;101591.7;;;2.4;unknown
73422;BME280;61637;47.760;-122.022;2023-03-03T01:28:01;101591.7;;;2.4;unknown
73422;BME280;61637;47.760;-122.022;2023-03-03T01:30:01;101591.7;;;2.4;unknown
73422;BME280;61637;47.760;-122.022;2023-03-03T01:32:01;101591.7;;;2.4;unknown
73422;BME280;61637;47.760;-122.022;2023-03-03T01:34:01;101591.7;;;2.4;unknown
73422;BME280;61637;47.760;-122.022;2023-03-03T01:36:01;101591.7;;;2.4;unknown
73422;BME280;61637;47.760;-122.022;2023-03-03T01:38:01;101591.7;;;2.4;unknown
73422;BME280;61637;47.760;-122.022;2023-03-03T01:40:01;101591.7;;;2.4;unknown
73422;BME280;61637;47.760;-122.022;2023-03-03T01:42:01;101591.7;;;2.4;unknown
73422;BME280;61637;47.760;-122.022;2023-03-03T01:44:01;101591.7;;;2.4;unknown
73422;BME280;61637;47.760;-122.022;2023-03-03T01:48:02;101591.7;;;2.4;unknown
73422;BME280;61637;47.760;-122.022;2023-03-03T01:50:02;101591.7;;;2.4;unknown
73422;BME280;61637;47.760;-122.022;2023-03-03T01:52:01;101591.7;;;2.4;unknown
73422;BME280;61637;47.760;-122.022;2023-03-03T01:54:01;101591.7;;;2.4;unknown
73422;BME280;61637;47.760;-122.022;2023-03-03T01:56:01;101591.7;;;2.4;unknown
73422;BME280;61637;47.760;-122.022;2023-03-03T01:58:02;101591.7;;;2.4;unknown
73422;BME280;61637;47.760;-122.022;2023-03-03T02:00:01;101591.7;;;2.4;unknown
73422;BME280;61637;47.760;-122.022;2023-03-03T02:02:01;101591.7;;;2.4;unknown
73422;BME280;61637;47.760;-122.022;2023-03-03T02:04:01;101591.7;;;2.4;unknown
73422;BME280;61637;47.760;-122.022;2023-03-03T02:06:02;101591.7;;;2.4;unknown
73422;BME280;61637;47.760;-122.022;2023-03-03T02:08:01;101591.7;;;2.4;unknown
73422;BME280;61637;47.760;-122.022;2023-03-03T02:10:03;101591.7;;;2.4;unknown
73422;BME280;61637;47.760;-122.022;2023-03-03T02:12:02;101591.7;;;2.4;unknown
73422;BME280;61637;47.760;-122.022;2023-03-03T02:14:01;101591.7;;;2.4;unknown
73422;BME280;61637;47.760;-122.022;2023-03-03T02:16:01;101591.7;;;2.4;unknown
73422;BME280;61637;47.760;-122.022;2023-03-03T02:18:02;101591.7;;;2.4;unknown
73422;BME280;61637;47.760;-122.022;2023-03-03T02:20:02;101591.7;;;2.4;unknown
73422;BME280;61637;47.760;-122.022;2023-03-03T02:22:01;101591.7;;;2.4;unknown
73422;BME280;61637;47.760;-122.022;2023-03-03T02:24:02;101591.7;;;2.4;unknown
73422;BME280;61637;47.760;-122.022;2023-03-03T02:26:03;101591.7;;;2.4;unknown
73422;BME280;61637;47.760;-122.022;2023-03-03T02:28:01;101591.7;;;2.3;unknown
73422;BME280;61637;47.760;-122.022;2023-03-03T02:30:10;101591.7;;;2.3;unknown
73422;BME280;61637;47.760;-122.022;2023-03-03T02:32:01;101591.7;;;2.3;unknown
73422;BME280;61637;47.760;-122.022;2023-03-03T02:34:01;101591.7;;;2.2;unknown
73422;BME280;61637;47.760;-122.022;2023-03-03T02:36:01;101591.7;;;2.2;unknown
73422;BME280;61637;47.760;-122.022;2023-03-03T02:40:01;101591.7;;;2.2;unknown
73422;BME280;61637;47.760;-122.022;2023-03-03T02:42:02;101591.7;;;2.1;unknown
73422;BME280;61637;47.760;-122.022;2023-03-03T02:44:01;101591.7;;;2.1;unknown
73422;BME280;61637;47.760;-122.022;2023-03-03T02:46:01;101591.7;;;2.1;unknown
73422;BME280;61637;47.760;-122.022;2023-03-03T02:48:01;101591.7;;;2.1;unknown
73422;BME280;61637;47.760;-122.022;2023-03-03T02:50:01;101591.7;;;2.0;unknown
73422;BME280;61637;47.760;-122.022;2023-03-03T02:52:02;101591.7;;;2.0;unknown
73422;BME280;61637;47.760;-122.022;2023-03-03T02:54:01;101591.7;;;2.0;unknown
73422;BME280;61637;47.760;-122.022;2023-03-03T02:56:01;101591.7;;;2.0;unknown
73422;BME280;61637;47.760;-122.022;2023-03-03T02:58:01;101591.7;;;2.0;unknown
73422;BME280;61637;47.760;-122.022;2023-03-03T03:00:01;101591.7;;;1.9;unknown
73422;BME280;61637;47.760;-122.022;2023-03-03T03:02:01;101591.7;;;1.9;unknown
73422;BME280;61637;47.760;-122.022;2023-03-03T03:04:01;101591.7;;;1.9;unknown
73422;BME280;61637;47.760;-122.022;2023-03-03T03:06:01;101591.7;;;1.8;unknown
73422;BME280;61637;47.760;-122.022;2023-03-03T03:08:01;101591.7;;;1.8;unknown
73422;BME280;61637;47.760;-122.022;2023-03-03T03:10:01;101591.7;;;1.7;unknown
73422;BME280;61637;47.760;-122.022;2023-03-03T03:12:01;101591.7;;;1.7;unknown
73422;BME280;61637;47.760;-122.022;2023-03-03T03:14:01;101591.7;;;1.6;unknown
73422;BME280;61637;47.760;-122.022;2023-03-03T03:16:01;101591.7;;;1.6;unknown
73422;BME280;61637;47.760;-122.022;2023-03-03T03:18:01;101591.7;;;1.5;unknown
73422;BME280;61637;47.760;-122.022;2023-03-03T03:20:01;101591.7;;;1.4;unknown
73422;BME280;61637;47.760;-122.022;2023-03-03T03:22:01;101591.7;;;1.4;unknown
73422;BME280;61637;47.760;-122.022;2023-03-03T03:24:01;101591.7;;;1.3;unknown
73422;BME280;61637;47.760;-122.022;2023-03-03T03:26:01;101591.7;;;1.3;unknown
73422;BME280;61637;47.760;-122.022;2023-03-03T03:28:01;101591.7;;;1.2;unknown
73422;BME280;61637;47.760;-122.022;2023-03-03T03:30:01;101591.7;;;1.1;unknown
73422;BME280;61637;47.760;-122.022;2023-03-03T03:32:01;101591.7;;;1.1;unknown
73422;BME280;61637;47.760;-122.022;2023-03-03T03:34:01;101591.7;;;1.0;unknown
73422;BME280;61637;47.760;-122.022;2023-03-03T03:36:01;101591.7;;;0.9;unknown
73422;BME280;61637;47.760;-122.022;2023-03-03T03:38:01;101591.7;;;0.9;unknown
73422;BME280;61637;47.760;-122.022;2023-03-03T03:40:01;101591.7;;;0.9;unknown
73422;BME280;61637;47.760;-122.022;2023-03-03T03:42:01;101591.7;;;0.9;unknown
73422;BME280;61637;47.760;-122.022;2023-03-03T03:44:01;101591.7;;;0.9;unknown
73422;BME280;61637;47.760;-122.022;2023-03-03T03:46:01;101591.7;;;0.9;unknown
73422;BME280;61637;47.760;-122.022;2023-03-03T03:48:01;101591.7;;;0.9;unknown
73422;BME280;61637;47.760;-122.022;2023-03-03T03:50:01;101591.7;;;0.9;unknown
73422;BME280;61637;47.760;-122.022;2023-03-03T03:52:01;101591.7;;;0.9;unknown
73422;BME280;61637;47.760;-122.022;2023-03-03T03:54:01;101591.7;;;0.9;unknown
73422;BME280;61637;47.760;-122.022;2023-03-03T03:56:01;101591.7;;;0.9;unknown
73422;BME280;61637;47.760;-122.022;2023-03-03T03:58:01;101591.7;;;0.9;unknown
73422;BME280;61637;47.760;-122.022;2023-03-03T04:00:01;101591.7;;;0.9;unknown
73422;BME280;61637;47.760;-122.022;2023-03-03T04:02:01;101591.7;;;0.9;unknown
73422;BME280;61637;47.760;-122.022;2023-03-03T04:04:01;101591.7;;;0.9;unknown
73422;BME280;61637;47.760;-122.022;2023-03-03T04:06:01;101591.7;;;0.9;unknown
73422;BME280;61637;47.760;-122.022;2023-03-03T04:08:01;101591.7;;;0.9;unknown
73422;BME280;61637;47.760;-122.022;2023-03-03T04:10:01;101591.7;;;0.9;unknown
73422;BME280;61637;47.760;-122.022;2023-03-03T04:12:01;101591.7;;;0.9;unknown
73422;BME280;61637;47.760;-122.022;2023-03-03T04:14:01;101591.7;;;0.9;unknown
73422;BME280;61637;47.760;-122.022;2023-03-03T04:16:01;101591.7;;;0.9;unknown
73422;BME280;61637;47.760;-122.022;2023-03-03T04:18:01;101591.7;;;0.8;unknown
73422;BME280;61637;47.760;-122.022;2023-03-03T04:20:01;101591.7;;;0.8;unknown
73422;BME280;61637;47.760;-122.022;2023-03-03T04:22:01;101591.7;;;0.8;unknown
73422;BME280;61637;47.760;-122.022;2023-03-03T04:24:01;101591.7;;;0.8;unknown
73422;BME280;61637;47.760;-122.022;2023-03-03T04:26:01;101591.7;;;0.8;unknown
73422;BME280;61637;47.760;-122.022;2023-03-03T04:28:01;101591.7;;;0.8;unknown
73422;BME280;61637;47.760;-122.022;2023-03-03T04:30:01;101591.7;;;0.8;unknown
73422;BME280;61637;47.760;-122.022;2023-03-03T04:32:01;101591.7;;;0.8;unknown
73422;BME280;61637;47.760;-122.022;2023-03-03T04:34:01;101591.7;;;0.8;unknown
73422;BME280;61637;47.760;-122.022;2023-03-03T04:36:01;101591.7;;;0.8;unknown
73422;BME280;61637;47.760;-122.022;2023-03-03T04:38:01;101591.7;;;0.8;unknown
73422;BME280;61637;47.760;-122.022;2023-03-03T04:40:01;101591.7;;;0.8;unknown
73422;BME280;61637;47.760;-122.022;2023-03-03T04:42:01;101591.7;;;0.8;unknown
73422;BME280;61637;47.760;-122.022;2023-03-03T04:44:01;101591.7;;;0.8;unknown
73422;BME280;61637;47.760;-122.022;2023-03-03T04:46:01;101591.7;;;0.8;unknown
73422;BME280;61637;47.760;-122.022;2023-03-03T04:48:01;101591.7;;;0.8;unknown
73422;BME280;61637;47.760;-122.022;2023-03-03T04:50:01;101591.7;;;0.8;unknown
73422;BME280;61637;47.760;-122.022;2023-03-03T04:52:01;101591.7;;;0.7;unknown
73422;BME280;61637;47.760;-122.022;2023-03-03T04:54:01;101591.7;;;0.7;unknown
73422;BME280;61637;47.760;-122.022;2023-03-03T04:56:01;101591.7;;;0.7;unknown
73422;BME280;61637;47.760;-122.022;2023-03-03T04:58:01;101591.7;;;0.7;unknown
73422;BME280;61637;47.760;-122.022;2023-03-03T05:00:01;101591.7;;;0.7;unknown
73422;BME280;61637;47.760;-122.022;2023-03-03T05:02:01;101591.7;;;0.7;unknown
73422;BME280;61637;47.760;-122.022;2023-03-03T05:04:01;101591.7;;;0.7;unknown
73422;BME280;61637;47.760;-122.022;2023-03-03T05:06:01;101591.7;;;0.7;unknown
73422;BME280;61637;47.760;-122.022;2023-03-03T05:08:01;101591.7;;;0.7;unknown
73422;BME280;61637;47.760;-122.022;2023-03-03T05:10:01;101591.7;;;0.7;unknown
73422;BME280;61637;47.760;-122.022;2023-03-03T05:12:01;101591.7;;;0.7;unknown
73422;BME280;61637;47.760;-122.022;2023-03-03T05:14:01;101591.7;;;0.7;unknown
73422;BME280;61637;47.760;-122.022;2023-03-03T05:16:01;101591.7;;;0.7;unknown
73422;BME280;61637;47.760;-122.022;2023-03-03T05:18:01;101591.7;;;0.7;unknown
73422;BME280;61637;47.760;-122.022;2023-03-03T05:20:01;101591.7;;;0.7;unknown
73422;BME280;61637;47.760;-122.022;2023-03-03T05:22:01;101591.7;;;0.7;unknown
73422;BME280;61637;47.760;-122.022;2023-03-03T05:24:01;101591.7;;;0.7;unknown
73422;BME280;61637;47.760;-122.022;2023-03-03T05:26:01;101591.7;;;0.7;unknown
73422;BME280;61637;47.760;-122.022;2023-03-03T05:28:01;101591.7;;;0.8;unknown
73422;BME280;61637;47.760;-122.022;2023-03-03T05:30:01;101591.7;;;0.8;unknown
73422;BME280;61637;47.760;-122.022;2023-03-03T05:32:01;101591.7;;;0.8;unknown
73422;BME280;61637;47.760;-122.022;2023-03-03T05:34:01;101930.339;;;0.8;unknown
73422;BME280;61637;47.760;-122.022;2023-03-03T05:36:01;101930.339;;;0.9;unknown
73422;BME280;61637;47.760;-122.022;2023-03-03T05:38:01;101930.339;;;0.9;unknown
73422;BME280;61637;47.760;-122.022;2023-03-03T05:40:01;101930.339;;;0.9;unknown
73422;BME280;61637;47.760;-122.022;2023-03-03T05:42:01;101930.339;;;0.9;unknown
73422;BME280;61637;47.760;-122.022;2023-03-03T05:44:01;101930.339;;;0.9;unknown
73422;BME280;61637;47.760;-122.022;2023-03-03T05:46:01;101930.339;;;1.0;unknown
73422;BME280;61637;47.760;-122.022;2023-03-03T05:48:01;101930.339;;;1.1;unknown
73422;BME280;61637;47.760;-122.022;2023-03-03T05:50:01;101930.339;;;1.1;unknown
73422;BME280;61637;47.760;-122.022;2023-03-03T05:52:01;101930.339;;;1.1;unknown
73422;BME280;61637;47.760;-122.022;2023-03-03T05:54:01;101930.339;;;1.1;unknown
73422;BME280;61637;47.760;-122.022;2023-03-03T05:56:01;101930.339;;;1.1;unknown
73422;BME280;61637;47.760;-122.022;2023-03-03T05:58:01;101930.339;;;1.1;unknown
73422;BME280;61637;47.760;-122.022;2023-03-03T06:00:01;101930.339;;;1.1;unknown
73422;BME280;61637;47.760;-122.022;2023-03-03T06:02:01;101930.339;;;1.1;unknown
73422;BME280;61637;47.760;-122.022;2023-03-03T06:04:01;101930.339;;;1.1;unknown
73422;BME280;61637;47.760;-122.022;2023-03-03T06:06:01;101930.339;;;1.1;unknown
73422;BME280;61637;47.760;-122.022;2023-03-03T06:08:01;101930.339;;;1.1;unknown
73422;BME280;61637;47.760;-122.022;2023-03-03T06:10:01;101930.339;;;1.1;unknown
73422;BME280;61637;47.760;-122.022;2023-03-03T06:12:01;101930.339;;;1.1;unknown
73422;BME280;61637;47.760;-122.022;2023-03-03T06:14:01;101930.339;;;1.1;unknown
73422;BME280;61637;47.760;-122.022;2023-03-03T06:16:01;101930.339;;;1.1;unknown
73422;BME280;61637;47.760;-122.022;2023-03-03T06:18:01;101930.339;;;1.1;unknown
73422;BME280;61637;47.760;-122.022;2023-03-03T06:20:01;101591.7;;;1.1;unknown
73422;BME280;61637;47.760;-122.022;2023-03-03T06:22:01;101591.7;;;1.1;unknown
73422;BME280;61637;47.760;-122.022;2023-03-03T06:24:01;101930.339;;;1.1;unknown
73422;BME280;61637;47.760;-122.022;2023-03-03T06:26:01;101591.7;;;1.1;unknown
73422;BME280;61637;47.760;-122.022;2023-03-03T06:28:01;101591.7;;;1.1;unknown
73422;BME280;61637;47.760;-122.022;2023-03-03T06:30:01;101930.339;;;1.1;unknown
73422;BME280;61637;47.760;-122.022;2023-03-03T06:32:01;101930.339;;;1.1;unknown
73422;BME280;61637;47.760;-122.022;2023-03-03T06:34:01;101591.7;;;1.1;unknown
73422;BME280;61637;47.760;-122.022;2023-03-03T06:36:01;101591.7;;;1.1;unknown
73422;BME280;61637;47.760;-122.022;2023-03-03T06:38:01;101591.7;;;1.1;unknown
73422;BME280;61637;47.760;-122.022;2023-03-03T06:40:01;101591.7;;;1.1;unknown
73422;BME280;61637;47.760;-122.022;2023-03-03T06:42:01;101591.7;;;1.2;unknown
73422;BME280;61637;47.760;-122.022;2023-03-03T06:44:01;101591.7;;;1.1;unknown
73422;BME280;61637;47.760;-122.022;2023-03-03T06:46:01;101591.7;;;1.2;unknown
73422;BME280;61637;47.760;-122.022;2023-03-03T06:48:01;101591.7;;;1.2;unknown
73422;BME280;61637;47.760;-122.022;2023-03-03T06:50:01;101591.7;;;1.2;unknown
73422;BME280;61637;47.760;-122.022;2023-03-03T06:52:04;101591.7;;;1.2;unknown
73422;BME280;61637;47.760;-122.022;2023-03-03T06:54:01;101591.7;;;1.1;unknown
73422;BME280;61637;47.760;-122.022;2023-03-03T06:56:01;101591.7;;;1.1;unknown
73422;BME280;61637;47.760;-122.022;2023-03-03T06:58:01;101591.7;;;1.1;unknown
73422;BME280;61637;47.760;-122.022;2023-03-03T07:00:09;101591.7;;;1.1;unknown
73422;BME280;61637;47.760;-122.022;2023-03-03T07:02:01;101591.7;;;1.1;unknown
73422;BME280;61637;47.760;-122.022;2023-03-03T07:04:01;101591.7;;;1.0;unknown
73422;BME280;61637;47.760;-122.022;2023-03-03T07:06:01;101591.7;;;1.0;unknown
73422;BME280;61637;47.760;-122.022;2023-03-03T07:08:01;101591.7;;;1.0;unknown
73422;BME280;61637;47.760;-122.022;2023-03-03T07:10:01;101591.7;;;1.0;unknown
73422;BME280;61637;47.760;-122.022;2023-03-03T07:12:02;101591.7;;;1.1;unknown
73422;BME280;61637;47.760;-122.022;2023-03-03T07:14:01;101591.7;;;1.0;unknown
73422;BME280;61637;47.760;-122.022;2023-03-03T07:16:04;101591.7;;;1.0;unknown
73422;BME280;61637;47.760;-122.022;2023-03-03T07:18:01;101591.7;;;1.0;unknown
73422;BME280;61637;47.760;-122.022;2023-03-03T07:20:01;101591.7;;;1.1;unknown
73422;BME280;61637;47.760;-122.022;2023-03-03T07:22:03;101591.7;;;1.0;unknown
73422;BME280;61637;47.760;-122.022;2023-03-03T07:24:07;101591.7;;;1.1;unknown
73422;BME280;61637;47.760;-122.022;2023-03-03T07:26:01;101591.7;;;1.1;unknown
73422;BME280;61637;47.760;-122.022;2023-03-03T07:28:06;101591.7;;;1.0;unknown
73422;BME280;61637;47.760;-122.022;2023-03-03T07:30:08;101591.7;;;1.0;unknown
73422;BME280;61637;47.760;-122.022;2023-03-03T07:32:01;101591.7;;;0.9;unknown
73422;BME280;61637;47.760;-122.022;2023-03-03T07:34:02;101591.7;;;0.9;unknown
73422;BME280;61637;47.760;-122.022;2023-03-03T07:36:01;101591.7;;;0.9;unknown
73422;BME280;61637;47.760;-122.022;2023-03-03T07:38:01;101591.7;;;0.9;unknown
73422;BME280;61637;47.760;-122.022;2023-03-03T07:40:01;101591.7;;;0.9;unknown
73422;BME280;61637;47.760;-122.022;2023-03-03T07:42:05;101591.7;;;0.9;unknown
73422;BME280;61637;47.760;-122.022;2023-03-03T07:44:03;101591.7;;;0.9;unknown
73422;BME280;61637;47.760;-122.022;2023-03-03T07:46:02;101591.7;;;1.0;unknown
73422;BME280;61637;47.760;-122.022;2023-03-03T07:48:03;101591.7;;;1.0;unknown
73422;BME280;61637;47.760;-122.022;2023-03-03T07:50:06;101591.7;;;1.0;unknown
73422;BME280;61637;47.760;-122.022;2023-03-03T07:52:01;101591.7;;;1.1;unknown
73422;BME280;61637;47.760;-122.022;2023-03-03T07:54:11;101591.7;;;1.1;unknown
73422;BME280;61637;47.760;-122.022;2023-03-03T07:56:01;101591.7;;;1.1;unknown
73422;BME280;61637;47.760;-122.022;2023-03-03T07:58:13;101591.7;;;1.1;unknown
73422;BME280;61637;47.760;-122.022;2023-03-03T08:00:08;101930.339;;;1.1;unknown
73422;BME280;61637;47.760;-122.022;2023-03-03T08:02:01;101591.7;;;1.1;unknown
73422;BME280;61637;47.760;-122.022;2023-03-03T08:04:01;101591.7;;;1.1;unknown
73422;BME280;61637;47.760;-122.022;2023-03-03T08:06:01;101591.7;;;1.1;unknown
73422;BME280;61637;47.760;-122.022;2023-03-03T08:08:11;101930.339;;;1.2;unknown
73422;BME280;61637;47.760;-122.022;2023-03-03T08:10:01;101591.7;;;1.2;unknown
73422;BME280;61637;47.760;-122.022;2023-03-03T08:12:07;101591.7;;;1.2;unknown
73422;BME280;61637;47.760;-122.022;2023-03-03T08:14:01;101591.7;;;1.2;unknown
73422;BME280;61637;47.760;-122.022;2023-03-03T08:16:17;101591.7;;;1.2;unknown
73422;BME280;61637;47.760;-122.022;2023-03-03T08:18:01;101591.7;;;1.2;unknown
73422;BME280;61637;47.760;-122.022;2023-03-03T08:20:01;101930.339;;;1.2;unknown
73422;BME280;61637;47.760;-122.022;2023-03-03T08:22:02;101591.7;;;1.2;unknown
73422;BME280;61637;47.760;-122.022;2023-03-03T08:24:01;101591.7;;;1.2;unknown
73422;BME280;61637;47.760;-122.022;2023-03-03T08:26:01;101930.339;;;1.2;unknown
73422;BME280;61637;47.760;-122.022;2023-03-03T08:28:01;101930.339;;;1.2;unknown
73422;BME280;61637;47.760;-122.022;2023-03-03T08:30:01;101930.339;;;1.2;unknown
73422;BME280;61637;47.760;-122.022;2023-03-03T08:32:01;101930.339;;;1.2;unknown
73422;BME280;61637;47.760;-122.022;2023-03-03T08:34:01;101930.339;;;1.2;unknown
73422;BME280;61637;47.760;-122.022;2023-03-03T08:36:01;101591.7;;;1.2;unknown
73422;BME280;61637;47.760;-122.022;2023-03-03T08:38:01;101930.339;;;1.2;unknown
73422;BME280;61637;47.760;-122.022;2023-03-03T08:40:01;101930.339;;;1.2;unknown
73422;BME280;61637;47.760;-122.022;2023-03-03T08:42:01;101930.339;;;1.2;unknown
73422;BME280;61637;47.760;-122.022;2023-03-03T08:44:01;101930.339;;;1.3;unknown
73422;BME280;61637;47.760;-122.022;2023-03-03T08:46:01;101930.339;;;1.3;unknown
73422;BME280;61637;47.760;-122.022;2023-03-03T08:48:01;101930.339;;;1.3;unknown
73422;BME280;61637;47.760;-122.022;2023-03-03T08:50:01;101930.339;;;1.3;unknown
73422;BME280;61637;47.760;-122.022;2023-03-03T08:52:01;101930.339;;;1.3;unknown
73422;BME280;61637;47.760;-122.022;2023-03-03T08:54:01;101930.339;;;1.3;unknown
73422;BME280;61637;47.760;-122.022;2023-03-03T08:56:01;101930.339;;;1.3;unknown
73422;BME280;61637;47.760;-122.022;2023-03-03T08:58:01;101930.339;;;1.3;unknown
73422;BME280;61637;47.760;-122.022;2023-03-03T09:00:01;101930.339;;;1.3;unknown
73422;BME280;61637;47.760;-122.022;2023-03-03T09:02:01;101930.339;;;1.3;unknown
73422;BME280;61637;47.760;-122.022;2023-03-03T09:04:01;101930.339;;;1.3;unknown
73422;BME280;61637;47.760;-122.022;2023-03-03T09:06:01;101930.339;;;1.3;unknown
73422;BME280;61637;47.760;-122.022;2023-03-03T09:08:01;101930.339;;;1.3;unknown
73422;BME280;61637;47.760;-122.022;2023-03-03T09:10:02;101930.339;;;1.3;unknown
73422;BME280;61637;47.760;-122.022;2023-03-03T09:12:05;101930.339;;;1.3;unknown
73422;BME280;61637;47.760;-122.022;2023-03-03T09:14:05;101930.339;;;1.3;unknown
73422;BME280;61637;47.760;-122.022;2023-03-03T09:16:01;101930.339;;;1.3;unknown
73422;BME280;61637;47.760;-122.022;2023-03-03T09:18:08;101930.339;;;1.3;unknown
73422;BME280;61637;47.760;-122.022;2023-03-03T09:20:09;101930.339;;;1.3;unknown
73422;BME280;61637;47.760;-122.022;2023-03-03T09:22:02;101930.339;;;1.4;unknown
73422;BME280;61637;47.760;-122.022;2023-03-03T09:24:01;101930.339;;;1.4;unknown
73422;BME280;61637;47.760;-122.022;2023-03-03T09:28:01;101930.339;;;1.4;unknown
73422;BME280;61637;47.760;-122.022;2023-03-03T09:30:01;101930.339;;;1.4;unknown
73422;BME280;61637;47.760;-122.022;2023-03-03T09:32:05;101930.339;;;1.4;unknown
73422;BME280;61637;47.760;-122.022;2023-03-03T09:34:01;101930.339;;;1.4;unknown
73422;BME280;61637;47.760;-122.022;2023-03-03T09:36:03;101930.339;;;1.4;unknown
73422;BME280;61637;47.760;-122.022;2023-03-03T09:38:01;101930.339;;;1.4;unknown
73422;BME280;61637;47.760;-122.022;2023-03-03T09:40:01;101930.339;;;1.4;unknown
73422;BME280;61637;47.760;-122.022;2023-03-03T09:42:05;101930.339;;;1.4;unknown
73422;BME280;61637;47.760;-122.022;2023-03-03T09:44:08;101930.339;;;1.4;unknown
73422;BME280;61637;47.760;-122.022;2023-03-03T09:46:01;101930.339;;;1.4;unknown
73422;BME280;61637;47.760;-122.022;2023-03-03T09:48:06;101930.339;;;1.4;unknown
73422;BME280;61637;47.760;-122.022;2023-03-03T09:50:03;101930.339;;;1.4;unknown
73422;BME280;61637;47.760;-122.022;2023-03-03T09:52:04;101930.339;;;1.4;unknown
73422;BME280;61637;47.760;-122.022;2023-03-03T09:54:05;101930.339;;;1.4;unknown
73422;BME280;61637;47.760;-122.022;2023-03-03T09:56:02;101930.339;;;1.4;unknown
73422;BME280;61637;47.760;-122.022;2023-03-03T09:58:08;101930.339;;;1.4;unknown
73422;BME280;61637;47.760;-122.022;2023-03-03T10:02:05;101930.339;;;1.4;unknown
73422;BME280;61637;47.760;-122.022;2023-03-03T10:04:07;101930.339;;;1.4;unknown
73422;BME280;61637;47.760;-122.022;2023-03-03T10:06:02;101930.339;;;1.4;unknown
73422;BME280;61637;47.760;-122.022;2023-03-03T10:08:05;101930.339;;;1.4;unknown
73422;BME280;61637;47.760;-122.022;2023-03-03T10:10:03;101930.339;;;1.5;unknown
73422;BME280;61637;47.760;-122.022;2023-03-03T10:12:02;101930.339;;;1.4;unknown
73422;BME280;61637;47.760;-122.022;2023-03-03T10:14:12;101930.339;;;1.5;unknown
73422;BME280;61637;47.760;-122.022;2023-03-03T10:16:08;101930.339;;;1.5;unknown
73422;BME280;61637;47.760;-122.022;2023-03-03T10:18:01;101930.339;;;1.5;unknown
73422;BME280;61637;47.760;-122.022;2023-03-03T10:20:06;101930.339;;;1.5;unknown
73422;BME280;61637;47.760;-122.022;2023-03-03T10:22:02;101930.339;;;1.5;unknown